Map

Track Data

SID SEASON NUMBER BASIN SUBBASIN NAME ISO_TIME NATURE LAT LON WMO_WIND WMO_PRES WMO_AGENCY TRACK_TYPE DIST2LAND LANDFALL IFLAG USA_AGENCY USA_ATCF_ID USA_LAT USA_LON USA_RECORD USA_STATUS USA_WIND USA_PRES USA_SSHS USA_R34_NE USA_R34_SE USA_R34_SW USA_R34_NW USA_R50_NE USA_R50_SE USA_R50_SW USA_R50_NW USA_R64_NE USA_R64_SE USA_R64_SW USA_R64_NW USA_POCI USA_ROCI USA_RMW USA_EYE TOKYO_LAT TOKYO_LON TOKYO_GRADE TOKYO_WIND TOKYO_PRES TOKYO_R50_DIR TOKYO_R50_LONG TOKYO_R50_SHORT TOKYO_R30_DIR TOKYO_R30_LONG TOKYO_R30_SHORT TOKYO_LAND CMA_LAT CMA_LON CMA_CAT CMA_WIND CMA_PRES HKO_LAT HKO_LON HKO_CAT HKO_WIND HKO_PRES NEWDELHI_LAT NEWDELHI_LON NEWDELHI_GRADE NEWDELHI_WIND NEWDELHI_PRES NEWDELHI_CI NEWDELHI_DP NEWDELHI_POCI REUNION_LAT REUNION_LON REUNION_TYPE REUNION_WIND REUNION_PRES REUNION_TNUM REUNION_CI REUNION_RMW REUNION_R34_NE REUNION_R34_SE REUNION_R34_SW REUNION_R34_NW REUNION_R50_NE REUNION_R50_SE REUNION_R50_SW REUNION_R50_NW REUNION_R64_NE REUNION_R64_SE REUNION_R64_SW REUNION_R64_NW BOM_LAT BOM_LON BOM_TYPE BOM_WIND BOM_PRES BOM_TNUM BOM_CI BOM_RMW BOM_R34_NE BOM_R34_SE BOM_R34_SW BOM_R34_NW BOM_R50_NE BOM_R50_SE BOM_R50_SW BOM_R50_NW BOM_R64_NE BOM_R64_SE BOM_R64_SW BOM_R64_NW BOM_ROCI BOM_POCI BOM_EYE BOM_POS_METHOD BOM_PRES_METHOD NADI_LAT NADI_LON NADI_CAT NADI_WIND NADI_PRES WELLINGTON_LAT WELLINGTON_LON WELLINGTON_WIND WELLINGTON_PRES DS824_LAT DS824_LON DS824_STAGE DS824_WIND DS824_PRES TD9636_LAT TD9636_LON TD9636_STAGE TD9636_WIND TD9636_PRES TD9635_LAT TD9635_LON TD9635_WIND TD9635_PRES TD9635_ROCI NEUMANN_LAT NEUMANN_LON NEUMANN_CLASS NEUMANN_WIND NEUMANN_PRES MLC_LAT MLC_LON MLC_CLASS MLC_WIND MLC_PRES USA_GUST BOM_GUST BOM_GUST_PER REUNION_GUST REUNION_GUST_PER USA_SEAHGT USA_SEARAD_NE USA_SEARAD_SE USA_SEARAD_SW USA_SEARAD_NW STORM_SPEED STORM_DIR
1983309N10091 1983 78 NI BB NOT_NAMED 1983-11-05 06:00:00 NR 9.60000 91.2000 main 628 628 O_________O___ jtwc_io IO041983 9.60000 91.2000 20 -1 9.60000 91.2000 1 20 8 3
1983309N10091 1983 78 NI BB NOT_NAMED 1983-11-05 09:00:00 NR 9.99907 91.2187 main 661 661 P_________P___ IO041983 10.0075 91.2026 20 -1 9.99061 91.2348 1 20 8 1
1983309N10091 1983 78 NI BB NOT_NAMED 1983-11-05 12:00:00 NR 10.4000 91.2000 main 695 664 O_________O___ jtwc_io IO041983 10.4000 91.2000 20 -1 10.4000 91.2000 1 20 8 352
1983309N10091 1983 78 NI BB NOT_NAMED 1983-11-05 15:00:00 NR 10.8098 91.1052 main 664 632 P_________P___ IO041983 10.7774 91.1672 20 -1 10.8423 91.0432 1 21 9 341
1983309N10091 1983 78 NI BB NOT_NAMED 1983-11-05 18:00:00 NR 11.2563 90.8915 main 630 615 O_________P___ jtwc_io IO041983 11.2000 91.0000 20 -1 11.3126 90.7830 1 22 11 329
1983309N10091 1983 78 NI BB NOT_NAMED 1983-11-05 21:00:00 NR 11.7684 90.5258 main 614 605 P_________P___ IO041983 11.7351 90.5952 22 -1 11.8016 90.4564 1 23 13 323
1983309N10091 1983 78 NI BB NOT_NAMED 1983-11-06 00:00:00 NR 12.3000 90.1000 main 605 598 O_________O___ jtwc_io IO041983 12.3000 90.1000 25 -1 12.3000 90.1000 1 25 13 322
1983309N10091 1983 78 NI BB NOT_NAMED 1983-11-06 03:00:00 NR 12.8145 89.7025 main 602 596 P_________P___ IO041983 12.8075 89.6774 25 -1 12.8215 89.7276 1 26 13 323
1983309N10091 1983 78 NI BB NOT_NAMED 1983-11-06 06:00:00 NR 13.3227 89.3206 main 607 601 O_________P___ jtwc_io IO041983 13.3000 89.3000 25 -1 13.3454 89.3411 1 27 13 325
1983309N10091 1983 78 NI BB NOT_NAMED 1983-11-06 09:00:00 NR 13.8383 88.9695 main 610 606 P_________P___ IO041983 13.8300 88.9551 27 -1 13.8466 88.9839 1 28 12 328
1983309N10091 1983 78 NI BB NOT_NAMED 1983-11-06 12:00:00 NR 14.3000 88.7000 main 620 616 O_________O___ jtwc_io IO041983 14.3000 88.7000 30 -1 14.3000 88.7000 1 30 9 333
1983309N10091 1983 78 NI BB NOT_NAMED 1983-11-06 15:00:00 NR 14.6609 88.5355 main 617 593 P_________P___ IO041983 14.6224 88.5623 30 -1 14.6993 88.5088 1 30 7 340
1983309N10091 1983 78 NI BB NOT_NAMED 1983-11-06 18:00:00 NR 14.9735 88.4497 main 586 562 O_________P___ jtwc_io IO041983 14.9000 88.5000 30 -1 15.0470 88.3994 1 30 7 347
1983309N10091 1983 78 NI BB NOT_NAMED 1983-11-06 21:00:00 NR 15.3056 88.3889 main 562 535 P_________P___ IO041983 15.2650 88.4126 30 -1 15.3462 88.3653 1 30 6 356
1983309N10091 1983 78 NI BB NOT_NAMED 1983-11-07 00:00:00 NR 15.6000 88.4000 main 535 519 O_________O___ jtwc_io IO041983 15.6000 88.4000 30 -1 15.6000 88.4000 1 30 5 12
1983309N10091 1983 78 NI BB NOT_NAMED 1983-11-07 03:00:00 NR 15.8261 88.5025 main 519 504 P_________P___ IO041983 15.8300 88.5199 32 -1 15.8222 88.4851 1 31 5 33
1983309N10091 1983 78 NI BB NOT_NAMED 1983-11-07 06:00:00 NR 16.0013 88.6661 main 509 499 O_________P___ jtwc_io IO041983 16.0000 88.7000 35 0 16.0026 88.6322 1 32 5 44
1983309N10091 1983 78 NI BB NOT_NAMED 1983-11-07 09:00:00 NR 16.1571 88.8317 main 495 491 P_________P___ IO041983 16.1575 88.8500 35 0 16.1566 88.8133 1 33 4 47
1983309N10091 1983 78 NI BB NOT_NAMED 1983-11-07 12:00:00 NR 16.3000 89.0000 main 496 493 O_________O___ jtwc_io IO041983 16.3000 89.0000 35 0 16.3000 89.0000 2 35 4 46
1983309N10091 1983 78 NI BB NOT_NAMED 1983-11-07 15:00:00 NR 16.4454 89.1481 main 493 488 P_________P___ IO041983 16.4500 89.1500 37 0 16.4409 89.1462 2 36 4 45
1983309N10091 1983 78 NI BB NOT_NAMED 1983-11-07 18:00:00 NR 16.5887 89.2964 main 488 486 O_________P___ jtwc_io IO041983 16.6000 89.3000 40 0 16.5774 89.2928 2 37 4 45
1983309N10091 1983 78 NI BB NOT_NAMED 1983-11-07 21:00:00 NR 16.7301 89.4428 main 486 483 P_________P___ IO041983 16.7350 89.4426 40 0 16.7253 89.4431 2 38 4 43
1983309N10091 1983 78 NI BB NOT_NAMED 1983-11-08 00:00:00 NR 16.9000 89.6000 main 483 463 O_________O___ jtwc_io IO041983 16.9000 89.6000 40 0 16.9000 89.6000 2 40 5 40
1983309N10091 1983 78 NI BB NOT_NAMED 1983-11-08 03:00:00 NR 17.1261 89.7939 main 463 429 P_________P___ IO041983 17.1350 89.7999 42 0 17.1173 89.7879 2 40 6 38
1983309N10091 1983 78 NI BB NOT_NAMED 1983-11-08 06:00:00 NR 17.3813 89.9898 main 429 398 O_________P___ jtwc_io IO041983 17.4000 90.0000 45 0 17.3626 89.9797 2 40 6 35
1983309N10091 1983 78 NI BB NOT_NAMED 1983-11-08 09:00:00 NR 17.6346 90.1646 main 398 367 P_________P___ IO041983 17.6425 90.1725 45 0 17.6267 90.1567 2 40 6 30
1983309N10091 1983 78 NI BB NOT_NAMED 1983-11-08 12:00:00 NR 17.9000 90.3000 main 367 344 O_________O___ jtwc_io IO041983 17.9000 90.3000 45 0 17.9000 90.3000 2 40 5 19
1983309N10091 1983 78 NI BB NOT_NAMED 1983-11-08 15:00:00 NR 18.1492 90.3519 main 344 321 P_________P___ IO041983 18.2000 90.3651 47 0 18.0985 90.3388 2 43 5 7
1983309N10091 1983 78 NI BB NOT_NAMED 1983-11-08 18:00:00 NR 18.4073 90.3750 main 321 307 O_________P___ jtwc_io IO041983 18.5000 90.4000 50 0 18.3146 90.3501 2 47 5 6
1983309N10091 1983 78 NI BB NOT_NAMED 1983-11-08 21:00:00 NR 18.6404 90.4108 main 307 272 P_________P___ IO041983 18.6825 90.4353 52 0 18.5984 90.3863 2 51 6 11
1983309N10091 1983 78 NI BB NOT_NAMED 1983-11-09 00:00:00 NR 19.0000 90.5000 main 272 215 O_________O___ jtwc_io IO041983 19.0000 90.5000 55 0 19.0000 90.5000 2 55 11 13
1983309N10091 1983 78 NI BB NOT_NAMED 1983-11-09 03:00:00 NR 19.6759 90.6708 main 209 153 P_________P___ IO041983 19.6898 90.5756 55 0 19.6620 90.7660 2 55 15 16
1983309N10091 1983 78 NI BB NOT_NAMED 1983-11-09 06:00:00 NR 20.4639 90.9576 main 138 61 O_________P___ jtwc_io IO041983 20.5000 90.8000 55 0 20.4278 91.1151 2 55 17 25
1983309N10091 1983 78 NI BB NOT_NAMED 1983-11-09 09:00:00 NR 21.1951 91.4131 main 61 0 P_________P___ IO041983 21.2105 91.3190 55 0 21.1796 91.5071 2 55 16 33
1983309N10091 1983 78 NI BB NOT_NAMED 1983-11-09 12:00:00 NR 21.8000 91.9000 main 0 0 O_________O___ jtwc_io IO041983 21.8000 91.9000 55 0 21.8000 91.9000 2 55 13 39
1983309N10091 1983 78 NI BB NOT_NAMED 1983-11-09 15:00:00 NR 22.2084 92.2857 main 0 0 P_________P___ IO041983 22.2047 92.3106 45 0 22.2122 92.2607 2 45 10 43
1983309N10091 1983 78 NI BB NOT_NAMED 1983-11-09 18:00:00 NR 22.5000 92.6000 main 0 O_________O___ jtwc_io IO041983 22.5000 92.6000 35 0 22.5000 92.6000 2 35 8 45

About IBTrACS Database

This database is a web-friendly format of International Best Track Archive for Climate Stewardship (IBTrACS), a global best track data archive curated by NOAA dating back to 1842.

Updated: 2021-11-26